createdAt,value
2018-06-01T00:00:13.519Z,17.14
2018-06-01T00:01:40.814Z,17.17
2018-06-01T00:03:07.224Z,17.19
2018-06-01T00:04:34.561Z,17.20
2018-06-01T00:06:03.038Z,17.19
2018-06-01T00:07:30.081Z,17.22
2018-06-01T00:08:56.045Z,17.23
2018-06-01T00:10:23.615Z,17.18
2018-06-01T00:11:51.028Z,17.13
2018-06-01T00:13:18.087Z,17.10
2018-06-01T00:14:46.588Z,17.08
2018-06-01T00:16:14.077Z,17.06
2018-06-01T00:17:40.515Z,17.05
2018-06-01T00:19:06.900Z,17.04
2018-06-01T00:20:35.304Z,17.05
2018-06-01T00:22:02.827Z,17.05
2018-06-01T00:23:30.141Z,17.00
2018-06-01T00:24:56.683Z,17.21
2018-06-01T00:26:24.164Z,16.96
2018-06-01T00:27:52.059Z,16.96
2018-06-01T00:29:18.273Z,16.94
2018-06-01T00:30:45.355Z,16.94
2018-06-01T00:32:12.713Z,16.95
2018-06-01T00:33:40.024Z,16.96
2018-06-01T00:35:08.364Z,16.99
2018-06-01T00:36:34.542Z,16.99
2018-06-01T00:38:02.638Z,17.00
2018-06-01T00:39:29.736Z,17.03
2018-06-01T00:40:56.140Z,17.06
2018-06-01T00:42:23.158Z,17.05
2018-06-01T00:43:51.018Z,17.05
2018-06-01T00:45:17.642Z,17.05
2018-06-01T00:46:45.088Z,17.05
2018-06-01T00:48:13.691Z,17.07
2018-06-01T00:49:39.537Z,17.08
2018-06-01T00:51:07.076Z,17.09
2018-06-01T00:52:34.455Z,17.14
2018-06-01T00:54:02.674Z,17.17
2018-06-01T00:55:30.097Z,17.19
2018-06-01T00:56:57.581Z,17.21
2018-06-01T00:58:23.570Z,17.22
2018-06-01T00:59:51.030Z,17.23
2018-06-01T01:01:18.557Z,17.21
2018-06-01T01:02:45.324Z,17.17
2018-06-01T01:04:12.731Z,17.19
2018-06-01T01:05:40.854Z,17.17
2018-06-01T01:07:06.738Z,17.14
2018-06-01T01:08:35.285Z,17.13
2018-06-01T01:10:01.633Z,17.12
2018-06-01T01:11:29.939Z,17.10
2018-06-01T01:12:56.794Z,17.07
2018-06-01T01:14:23.206Z,17.01
2018-06-01T01:15:50.686Z,16.97
2018-06-01T01:17:18.174Z,16.93
2018-06-01T01:18:46.504Z,16.88
2018-06-01T01:20:12.104Z,16.85
2018-06-01T01:21:38.936Z,16.81
2018-06-01T01:23:06.359Z,16.78
2018-06-01T01:24:34.809Z,16.76
2018-06-01T01:26:01.711Z,16.73
2018-06-01T01:27:27.801Z,16.70
2018-06-01T01:28:55.329Z,16.66
2018-06-01T01:30:23.740Z,16.63
2018-06-01T01:31:51.154Z,16.63
2018-06-01T01:33:17.478Z,16.62
2018-06-01T01:34:44.859Z,16.62
2018-06-01T01:36:12.321Z,16.62
2018-06-01T01:37:40.414Z,16.62
2018-06-01T01:39:06.571Z,16.62
2018-06-01T01:40:33.846Z,16.63
2018-06-01T01:42:02.277Z,16.63
2018-06-01T01:43:28.685Z,16.65
2018-06-01T01:44:56.102Z,16.67
2018-06-01T01:46:23.454Z,16.65
2018-06-01T01:47:51.990Z,16.67
2018-06-01T01:49:19.144Z,16.68
2018-06-01T01:50:45.760Z,16.66
2018-06-01T01:52:12.889Z,16.64
2018-06-01T01:53:40.268Z,16.62
2018-06-01T01:55:08.558Z,16.61
2018-06-01T01:56:34.836Z,16.59
2018-06-01T01:58:02.409Z,16.56
2018-06-01T01:59:30.657Z,16.55
2018-06-01T02:00:58.175Z,16.56
2018-06-01T02:02:25.306Z,16.58
2018-06-01T02:03:51.789Z,16.58
2018-06-01T02:05:19.157Z,16.57
2018-06-01T02:06:46.447Z,16.56
2018-06-01T02:08:13.963Z,16.53
2018-06-01T02:09:41.718Z,16.52
2018-06-01T02:11:09.074Z,16.50
2018-06-01T02:12:36.536Z,16.48
2018-06-01T02:14:02.699Z,16.46
2018-06-01T02:15:30.765Z,16.44
2018-06-01T02:16:56.487Z,16.41
2018-06-01T02:18:24.818Z,16.39
2018-06-01T02:19:51.204Z,16.38
2018-06-01T02:21:18.688Z,16.36
2018-06-01T02:22:47.292Z,16.34
2018-06-01T02:24:14.720Z,16.32
2018-06-01T02:25:41.030Z,16.31
2018-06-01T02:27:09.521Z,16.29
2018-06-01T02:28:36.371Z,16.30
2018-06-01T02:30:02.783Z,16.31
2018-06-01T02:31:30.091Z,16.32
2018-06-01T02:32:57.466Z,16.33
2018-06-01T02:34:24.646Z,16.33
2018-06-01T02:35:52.160Z,16.32
2018-06-01T02:37:19.730Z,16.31
2018-06-01T02:38:47.221Z,16.29
2018-06-01T02:40:15.653Z,16.28
2018-06-01T02:41:41.956Z,16.27
2018-06-01T02:43:09.685Z,16.27
2018-06-01T02:44:35.841Z,16.28
2018-06-01T02:46:03.207Z,16.28
2018-06-01T02:47:31.835Z,16.27
2018-06-01T02:48:58.936Z,16.28
2018-06-01T02:50:24.583Z,16.28
2018-06-01T02:51:52.004Z,16.27
2018-06-01T02:53:19.418Z,16.26
2018-06-01T02:54:46.822Z,16.25
2018-06-01T02:56:14.324Z,16.23
2018-06-01T02:57:41.843Z,16.22
2018-06-01T02:59:09.251Z,16.18
2018-06-01T03:00:36.981Z,16.16
2018-06-01T03:02:03.863Z,16.15
2018-06-01T03:03:30.500Z,16.15
2018-06-01T03:04:56.902Z,16.14
2018-06-01T03:06:23.992Z,16.14
2018-06-01T03:07:51.419Z,16.13
2018-06-01T03:09:19.893Z,16.13
2018-06-01T03:10:46.513Z,16.14
2018-06-01T03:12:12.810Z,16.13
2018-06-01T03:13:41.125Z,16.15
2018-06-01T03:15:08.571Z,16.16
2018-06-01T03:16:34.947Z,16.18
2018-06-01T03:18:08.188Z,16.19
2018-06-01T03:19:29.448Z,16.18
2018-06-01T03:20:56.867Z,16.18
2018-06-01T03:22:25.363Z,16.20
2018-06-01T03:23:51.672Z,16.22
2018-06-01T03:25:18.972Z,16.24
2018-06-01T03:26:46.457Z,16.26
2018-06-01T03:28:14.974Z,16.28
2018-06-01T03:29:41.452Z,16.32
2018-06-01T03:31:09.897Z,16.34
2018-06-01T03:32:36.296Z,16.39
2018-06-01T03:34:03.749Z,16.42
2018-06-01T03:35:31.054Z,16.47
2018-06-01T03:36:58.466Z,16.50
2018-06-01T03:38:25.996Z,16.52
2018-06-01T03:39:53.439Z,16.54
2018-06-01T03:41:20.953Z,16.56
2018-06-01T03:42:48.315Z,16.58
2018-06-01T03:44:16.833Z,16.60
2018-06-01T03:45:43.801Z,16.61
2018-06-01T03:47:11.137Z,16.63
2018-06-01T03:48:37.523Z,16.65
2018-06-01T03:50:05.040Z,16.67
2018-06-01T03:51:32.068Z,16.72
2018-06-01T03:52:59.191Z,16.79
2018-06-01T03:54:26.690Z,16.90
2018-06-01T03:55:55.284Z,17.00
2018-06-01T03:57:22.702Z,17.07
2018-06-01T03:58:52.149Z,17.12
2018-06-01T04:00:16.590Z,17.16
2018-06-01T04:01:45.399Z,17.18
2018-06-01T04:03:12.939Z,17.18
2018-06-01T04:04:40.300Z,17.19
2018-06-01T04:06:06.756Z,17.18
2018-06-01T04:07:35.175Z,17.18
2018-06-01T04:09:02.341Z,17.17
2018-06-01T04:10:29.393Z,17.18
2018-06-01T04:11:57.007Z,17.19
2018-06-01T04:13:22.695Z,17.19
2018-06-01T04:14:50.302Z,17.21
2018-06-01T04:16:17.793Z,17.21
2018-06-01T04:17:46.478Z,17.24
2018-06-01T04:19:13.789Z,17.25
2018-06-01T04:20:40.074Z,17.27
2018-06-01T04:22:08.577Z,17.28
2018-06-01T04:23:34.367Z,17.31
2018-06-01T04:25:02.805Z,17.34
2018-06-01T04:26:29.492Z,17.37
2018-06-01T04:27:58.107Z,17.40
2018-06-01T04:29:24.031Z,17.43
2018-06-01T04:30:51.576Z,17.46
2018-06-01T04:32:19.187Z,17.51
2018-06-01T04:33:46.810Z,17.52
2018-06-01T04:35:14.379Z,17.54
2018-06-01T04:36:41.823Z,17.55
2018-06-01T04:38:10.122Z,17.58
2018-06-01T04:39:36.385Z,17.61
2018-06-01T04:41:05.167Z,17.63
2018-06-01T04:42:31.367Z,17.64
2018-06-01T04:43:59.683Z,17.66
2018-06-01T04:45:25.835Z,17.69
2018-06-01T04:46:54.308Z,17.70
2018-06-01T04:48:20.822Z,17.72
2018-06-01T04:49:48.239Z,17.73
2018-06-01T04:51:15.844Z,17.74
2018-06-01T04:52:43.190Z,17.76
2018-06-01T04:54:11.691Z,17.77
2018-06-01T04:55:38.182Z,17.78
2018-06-01T04:57:05.234Z,17.81
2018-06-01T04:58:33.926Z,17.84
2018-06-01T05:00:01.389Z,17.89
2018-06-01T05:01:27.649Z,17.94
2018-06-01T05:02:55.058Z,17.99
2018-06-01T05:04:22.614Z,18.03
2018-06-01T05:05:50.002Z,18.07
2018-06-01T05:07:17.616Z,18.12
2018-06-01T05:08:45.135Z,18.16
2018-06-01T05:10:13.552Z,18.21
2018-06-01T05:11:41.026Z,18.27
2018-06-01T05:13:07.386Z,18.34
2018-06-01T05:14:34.746Z,18.40
2018-06-01T05:16:02.031Z,18.46
2018-06-01T05:17:29.420Z,18.51
2018-06-01T05:18:57.907Z,18.57
2018-06-01T05:20:25.475Z,18.63
2018-06-01T05:21:51.839Z,18.70
2018-06-01T05:23:20.397Z,18.76
2018-06-01T05:24:46.889Z,18.83
2018-06-01T05:26:14.252Z,18.90
2018-06-01T05:27:42.967Z,18.90
2018-06-01T05:29:10.452Z,18.98
2018-06-01T05:30:36.913Z,19.01
2018-06-01T05:32:05.512Z,19.07
2018-06-01T05:33:32.754Z,19.19
2018-06-01T05:34:59.210Z,19.31
2018-06-01T05:36:27.875Z,19.44
2018-06-01T05:37:53.535Z,19.51
2018-06-01T05:39:21.089Z,19.63
2018-06-01T05:40:49.604Z,19.75
2018-06-01T05:42:15.858Z,19.84
2018-06-01T05:43:44.485Z,19.91
2018-06-01T05:45:10.994Z,20.02
2018-06-01T05:46:38.409Z,20.15
2018-06-01T05:48:06.006Z,20.22
2018-06-01T05:49:33.440Z,20.34
2018-06-01T05:51:00.977Z,20.49
2018-06-01T05:52:29.488Z,20.59
2018-06-01T05:53:55.761Z,20.66
2018-06-01T05:55:23.192Z,20.73
2018-06-01T05:56:50.787Z,20.81
2018-06-01T05:58:19.183Z,20.86
2018-06-01T05:59:45.655Z,20.90
2018-06-01T06:01:13.121Z,20.91
2018-06-01T06:02:40.578Z,20.94
2018-06-01T06:04:08.164Z,20.97
2018-06-01T06:05:38.896Z,21.04
2018-06-01T06:07:03.400Z,21.09
2018-06-01T06:08:31.859Z,21.18
2018-06-01T06:09:59.162Z,21.23
2018-06-01T06:11:26.516Z,21.29
2018-06-01T06:12:52.921Z,21.43
2018-06-01T06:14:21.124Z,21.59
2018-06-01T06:15:47.524Z,21.68
2018-06-01T06:17:14.930Z,21.80
2018-06-01T06:18:42.530Z,21.96
2018-06-01T06:20:10.160Z,22.18
2018-06-01T06:21:37.669Z,22.36
2018-06-01T06:23:06.232Z,22.42
2018-06-01T06:24:33.846Z,22.57
2018-06-01T06:26:01.614Z,22.72
2018-06-01T06:27:28.883Z,22.75
2018-06-01T06:28:55.310Z,22.84
2018-06-01T06:30:24.058Z,22.94
2018-06-01T06:31:50.662Z,23.00
2018-06-01T06:33:18.322Z,23.10
2018-06-01T06:34:45.915Z,23.24
2018-06-01T06:36:13.478Z,23.39
2018-06-01T06:37:41.157Z,23.50
2018-06-01T06:39:08.421Z,23.51
2018-06-01T06:40:35.948Z,23.61
2018-06-01T06:42:03.447Z,23.76
2018-06-01T06:43:31.595Z,23.88
2018-06-01T06:44:58.250Z,24.09
2018-06-01T06:46:26.985Z,24.30
2018-06-01T06:47:53.317Z,24.47
2018-06-01T06:49:21.947Z,24.54
2018-06-01T06:50:48.574Z,24.53
2018-06-01T06:52:17.184Z,24.49
2018-06-01T06:53:44.820Z,24.46
2018-06-01T06:55:11.585Z,24.46
2018-06-01T06:56:39.106Z,24.37
2018-06-01T06:58:06.799Z,24.23
2018-06-01T06:59:34.427Z,24.18
2018-06-01T07:01:03.001Z,24.16
2018-06-01T07:02:29.481Z,24.14
2018-06-01T07:03:56.872Z,24.13
2018-06-01T07:05:24.401Z,24.08
2018-06-01T07:06:52.684Z,24.10
2018-06-01T07:08:19.362Z,24.11
2018-06-01T07:09:48.062Z,24.17
2018-06-01T07:11:14.493Z,24.31
2018-06-01T07:12:41.896Z,24.50
2018-06-01T07:14:09.594Z,24.61
2018-06-01T07:15:38.326Z,24.77
2018-06-01T07:17:04.856Z,24.87
2018-06-01T07:18:33.342Z,24.92
2018-06-01T07:20:00.986Z,24.97
2018-06-01T07:21:27.758Z,24.93
2018-06-01T07:22:55.466Z,25.00
2018-06-01T07:24:23.082Z,24.93
2018-06-01T07:25:50.676Z,24.90
2018-06-01T07:27:19.282Z,24.90
2018-06-01T07:28:45.903Z,24.87
2018-06-01T07:30:14.622Z,24.81
2018-06-01T07:31:41.203Z,24.86
2018-06-01T07:33:08.904Z,24.90
2018-06-01T07:34:36.545Z,24.92
2018-06-01T07:36:04.190Z,24.92
2018-06-01T07:37:32.730Z,24.85
2018-06-01T07:38:59.229Z,24.88
2018-06-01T07:40:27.971Z,24.87
2018-06-01T07:41:54.572Z,24.90
2018-06-01T07:43:22.069Z,24.90
2018-06-01T07:44:50.732Z,24.94
2018-06-01T07:46:17.416Z,25.01
2018-06-01T07:47:45.745Z,25.02
2018-06-01T07:49:13.452Z,25.04
2018-06-01T07:50:41.114Z,25.05
2018-06-01T07:52:07.746Z,25.07
2018-06-01T07:53:35.152Z,25.06
2018-06-01T07:55:02.771Z,25.06
2018-06-01T07:56:30.382Z,25.04
2018-06-01T07:57:57.875Z,25.03
2018-06-01T07:59:25.573Z,25.06
2018-06-01T08:00:54.063Z,25.05
2018-06-01T08:02:20.556Z,25.05
2018-06-01T08:03:48.177Z,25.04
2018-06-01T08:05:15.579Z,25.09
2018-06-01T08:06:43.160Z,25.15
2018-06-01T08:08:10.747Z,25.19
2018-06-01T08:09:38.347Z,25.23
2018-06-01T08:11:05.875Z,25.19
2018-06-01T08:12:33.562Z,25.24
2018-06-01T08:14:01.170Z,25.29
2018-06-01T08:15:28.716Z,25.34
2018-06-01T08:16:56.291Z,25.38
2018-06-01T08:18:23.984Z,25.42
2018-06-01T08:19:51.536Z,25.46
2018-06-01T08:21:19.083Z,25.48
2018-06-01T08:22:47.736Z,25.51
2018-06-01T08:24:15.365Z,25.53
2018-06-01T08:25:41.966Z,25.55
2018-06-01T08:27:09.499Z,25.57
2018-06-01T08:28:37.288Z,25.59
2018-06-01T08:30:04.866Z,25.61
2018-06-01T08:31:32.251Z,25.52
2018-06-01T08:33:00.911Z,25.55
2018-06-01T08:34:27.343Z,25.61
2018-06-01T08:35:55.010Z,25.65
2018-06-01T08:37:22.603Z,25.71
2018-06-01T08:38:51.146Z,25.77
2018-06-01T08:40:17.771Z,25.80
2018-06-01T08:41:45.345Z,25.83
2018-06-01T08:43:14.143Z,25.87
2018-06-01T08:44:40.708Z,25.93
2018-06-01T08:46:08.307Z,25.96
2018-06-01T08:47:36.196Z,26.03
2018-06-01T08:49:03.931Z,26.11
2018-06-01T08:50:31.465Z,26.19
2018-06-01T08:52:00.050Z,26.23
2018-06-01T08:53:26.461Z,26.26
2018-06-01T08:54:54.011Z,26.31
2018-06-01T08:56:22.674Z,26.32
2018-06-01T08:57:50.424Z,26.29
2018-06-01T08:59:17.149Z,26.29
2018-06-01T09:00:44.855Z,26.32
2018-06-01T09:02:13.499Z,26.31
2018-06-01T09:03:39.971Z,26.33
2018-06-01T09:05:08.625Z,26.37
2018-06-01T09:06:36.209Z,26.41
2018-06-01T09:08:02.847Z,26.45
2018-06-01T09:09:31.354Z,26.54
2018-06-01T09:10:57.833Z,26.69
2018-06-01T09:12:25.562Z,26.78
2018-06-01T09:13:53.081Z,26.89
2018-06-01T09:15:20.813Z,27.02
2018-06-01T09:16:48.402Z,27.13
2018-06-01T09:18:15.986Z,27.16
2018-06-01T09:19:43.681Z,27.06
2018-06-01T09:21:11.091Z,26.94
2018-06-01T09:22:39.647Z,26.93
2018-06-01T09:24:06.283Z,26.99
2018-06-01T09:25:34.759Z,26.94
2018-06-01T09:27:01.456Z,26.93
2018-06-01T09:28:28.984Z,26.87
2018-06-01T09:29:56.329Z,26.86
2018-06-01T09:31:23.971Z,26.90
2018-06-01T09:32:51.587Z,26.93
2018-06-01T09:34:19.235Z,26.96
2018-06-01T09:35:46.741Z,27.00
2018-06-01T09:37:15.391Z,26.99
2018-06-01T09:38:41.919Z,26.97
2018-06-01T09:40:09.586Z,27.03
2018-06-01T09:41:37.387Z,27.10
2018-06-01T09:43:04.859Z,27.20
2018-06-01T09:44:33.474Z,27.28
2018-06-01T09:46:00.056Z,27.24
2018-06-01T09:47:27.432Z,27.21
2018-06-01T09:48:55.109Z,27.23
2018-06-01T09:50:22.877Z,27.29
2018-06-01T09:51:50.586Z,27.30
2018-06-01T09:53:17.945Z,27.32
2018-06-01T09:54:45.515Z,27.40
2018-06-01T09:56:13.152Z,27.44
2018-06-01T09:57:40.772Z,27.49
2018-06-01T09:59:08.540Z,27.56
2018-06-01T10:00:36.337Z,27.67
2018-06-01T10:02:03.695Z,27.71
2018-06-01T10:03:31.210Z,27.74
2018-06-01T10:04:59.603Z,27.72
2018-06-01T10:06:26.155Z,27.72
2018-06-01T10:07:54.934Z,27.73
2018-06-01T10:09:21.721Z,27.77
2018-06-01T10:10:49.462Z,27.81
2018-06-01T10:12:16.962Z,27.83
2018-06-01T10:13:44.766Z,27.84
2018-06-01T10:15:12.429Z,27.88
2018-06-01T10:16:41.203Z,27.90
2018-06-01T10:18:07.851Z,27.99
2018-06-01T10:19:35.585Z,28.09
2018-06-01T10:21:03.021Z,28.10
2018-06-01T10:22:30.879Z,28.00
2018-06-01T10:23:58.208Z,27.99
2018-06-01T10:25:25.896Z,28.08
2018-06-01T10:26:53.608Z,28.14
2018-06-01T10:28:22.301Z,28.18
2018-06-01T10:29:48.995Z,28.23
2018-06-01T10:31:16.314Z,28.23
2018-06-01T10:32:44.083Z,28.28
2018-06-01T10:34:11.652Z,28.29
2018-06-01T10:35:39.362Z,28.31
2018-06-01T10:37:08.012Z,28.25
2018-06-01T10:38:34.432Z,28.19
2018-06-01T10:40:02.229Z,28.15
2018-06-01T10:41:29.715Z,28.18
2018-06-01T10:42:57.540Z,28.21
2018-06-01T10:44:25.224Z,28.26
2018-06-01T10:45:52.894Z,28.33
2018-06-01T10:47:20.424Z,28.41
2018-06-01T10:48:48.174Z,28.37
2018-06-01T10:50:15.841Z,28.25
2018-06-01T10:51:43.708Z,28.29
2018-06-01T10:53:11.243Z,28.36
2018-06-01T10:54:40.043Z,28.42
2018-06-01T10:56:06.115Z,28.38
2018-06-01T10:57:33.838Z,28.41
2018-06-01T10:59:01.087Z,28.47
2018-06-01T11:00:28.560Z,28.63
2018-06-01T11:01:57.402Z,28.68
2018-06-01T11:03:25.134Z,28.77
2018-06-01T11:04:51.136Z,28.81
2018-06-01T11:06:18.802Z,28.92
2018-06-01T11:07:46.041Z,29.09
2018-06-01T11:09:13.206Z,29.26
2018-06-01T11:10:41.792Z,29.43
2018-06-01T11:12:08.251Z,29.52
2018-06-01T11:13:36.717Z,29.59
2018-06-01T11:15:03.248Z,29.56
2018-06-01T11:16:30.843Z,29.44
2018-06-01T11:17:59.046Z,29.36
2018-06-01T11:19:26.748Z,29.27
2018-06-01T11:20:54.440Z,29.40
2018-06-01T11:22:21.144Z,29.44
2018-06-01T11:23:49.824Z,29.48
2018-06-01T11:25:16.538Z,29.66
2018-06-01T11:26:44.285Z,29.77
2018-06-01T11:28:11.879Z,29.81
2018-06-01T11:29:39.660Z,29.86
2018-06-01T11:31:07.250Z,30.01
2018-06-01T11:32:35.701Z,30.23
2018-06-01T11:34:02.424Z,30.31
2018-06-01T11:35:31.022Z,30.30
2018-06-01T11:36:57.524Z,30.34
2018-06-01T11:38:26.271Z,30.41
2018-06-01T11:39:52.879Z,30.34
2018-06-01T11:41:20.502Z,30.20
2018-06-01T11:42:49.130Z,30.33
2018-06-01T11:44:15.719Z,30.22
2018-06-01T11:45:43.506Z,29.98
2018-06-01T11:47:12.290Z,30.10
2018-06-01T11:48:39.019Z,30.12
2018-06-01T11:50:05.765Z,30.14
2018-06-01T11:51:33.558Z,30.17
2018-06-01T11:53:02.181Z,30.33
2018-06-01T11:54:28.759Z,30.30
2018-06-01T11:55:56.430Z,30.23
2018-06-01T11:57:23.985Z,30.35
2018-06-01T11:58:51.695Z,30.26
2018-06-01T12:00:18.997Z,30.23
2018-06-01T12:01:46.815Z,30.19
2018-06-01T12:04:48.093Z,30.11
2018-06-01T12:06:10.786Z,30.02
2018-06-01T12:07:37.325Z,30.08
2018-06-01T12:09:04.807Z,30.15
2018-06-01T12:10:32.349Z,30.30
2018-06-01T12:12:01.051Z,30.37
2018-06-01T12:13:27.493Z,30.40
2018-06-01T12:14:55.325Z,30.42
2018-06-01T12:16:23.014Z,30.59
2018-06-01T12:17:50.791Z,30.82
2018-06-01T12:19:18.406Z,30.85
2018-06-01T12:20:46.152Z,31.07
2018-06-01T12:22:14.001Z,31.28
2018-06-01T12:23:41.484Z,31.31
2018-06-01T12:25:09.101Z,31.27
2018-06-01T12:26:36.931Z,31.44
2018-06-01T12:28:04.572Z,31.37
2018-06-01T12:29:33.202Z,31.41
2018-06-01T12:30:59.733Z,31.36
2018-06-01T12:32:28.564Z,31.38
2018-06-01T12:33:55.149Z,31.43
2018-06-01T12:35:22.854Z,31.23
2018-06-01T12:36:50.550Z,31.21
2018-06-01T12:38:18.100Z,31.28
2018-06-01T12:39:46.973Z,31.31
2018-06-01T12:41:14.673Z,31.23
2018-06-01T12:42:42.295Z,31.33
2018-06-01T12:44:08.909Z,31.34
2018-06-01T12:45:36.605Z,31.25
2018-06-01T12:47:04.149Z,31.01
2018-06-01T12:48:31.816Z,30.77
2018-06-01T12:50:00.448Z,30.65
2018-06-01T12:51:26.930Z,30.58
2018-06-01T12:52:54.669Z,30.64
2018-06-01T12:54:22.327Z,30.72
2018-06-01T12:55:50.087Z,30.64
2018-06-01T12:57:18.733Z,30.68
2018-06-01T12:58:45.515Z,30.72
2018-06-01T13:00:13.121Z,30.74
2018-06-01T13:01:40.737Z,30.66
2018-06-01T13:03:08.383Z,30.58
2018-06-01T13:04:37.209Z,30.56
2018-06-01T13:06:03.892Z,30.63
2018-06-01T13:07:31.482Z,30.68
2018-06-01T13:08:59.309Z,30.72
2018-06-01T13:10:27.056Z,30.70
2018-06-01T13:11:54.801Z,30.68
2018-06-01T13:13:22.427Z,30.63
2018-06-01T13:14:50.099Z,30.55
2018-06-01T13:16:17.836Z,30.45
2018-06-01T13:17:45.299Z,30.27
2018-06-01T13:19:12.916Z,30.01
2018-06-01T13:20:40.565Z,29.99
2018-06-01T13:22:08.360Z,30.09
2018-06-01T13:23:36.162Z,30.20
2018-06-01T13:25:03.824Z,30.31
2018-06-01T13:26:31.576Z,30.31
2018-06-01T13:27:59.170Z,30.28
2018-06-01T13:29:27.883Z,30.17
2018-06-01T13:30:54.640Z,30.10
2018-06-01T13:32:22.414Z,30.07
2018-06-01T13:33:50.049Z,29.98
2018-06-01T13:35:17.753Z,29.94
2018-06-01T13:36:45.373Z,29.85
2018-06-01T13:38:14.213Z,29.84
2018-06-01T13:39:40.744Z,29.78
2018-06-01T13:41:08.382Z,29.69
2018-06-01T13:42:36.159Z,29.64
2018-06-01T13:44:03.857Z,29.61
2018-06-01T13:45:31.376Z,29.57
2018-06-01T13:46:59.033Z,29.53
2018-06-01T13:48:26.801Z,29.53
2018-06-01T13:49:54.551Z,29.58
2018-06-01T13:51:22.286Z,29.64
2018-06-01T13:52:49.912Z,29.63
2018-06-01T13:54:17.375Z,29.60
2018-06-01T13:55:45.094Z,29.58
2018-06-01T13:57:13.801Z,29.53
2018-06-01T13:58:40.420Z,29.54
2018-06-01T14:00:08.062Z,29.55
2018-06-01T14:01:35.717Z,29.53
2018-06-01T14:03:03.307Z,29.52
2018-06-01T14:04:30.970Z,29.51
2018-06-01T14:05:59.474Z,29.52
2018-06-01T14:07:26.175Z,29.54
2018-06-01T14:08:53.857Z,29.54
2018-06-01T14:10:21.472Z,29.52
2018-06-01T14:11:49.120Z,29.54
2018-06-01T14:13:16.988Z,29.59
2018-06-01T14:14:44.662Z,29.64
2018-06-01T14:16:12.359Z,29.68
2018-06-01T14:17:39.974Z,29.69
2018-06-01T14:19:07.694Z,29.64
2018-06-01T14:20:35.526Z,29.56
2018-06-01T14:22:03.130Z,29.55
2018-06-01T14:23:30.552Z,29.53
2018-06-01T14:24:58.235Z,29.52
2018-06-01T14:26:26.927Z,29.52
2018-06-01T14:27:53.600Z,29.55
2018-06-01T14:29:21.129Z,29.58
2018-06-01T14:30:48.905Z,29.59
2018-06-01T14:32:16.695Z,29.61
2018-06-01T14:33:44.392Z,29.63
2018-06-01T14:35:12.114Z,29.62
2018-06-01T14:36:39.751Z,29.59
2018-06-01T14:38:07.442Z,29.57
2018-06-01T14:39:36.149Z,29.56
2018-06-01T14:41:03.749Z,29.54
2018-06-01T14:42:31.424Z,29.53
2018-06-01T14:43:57.758Z,29.52
2018-06-01T14:45:25.487Z,29.50
2018-06-01T14:46:53.042Z,29.48
2018-06-01T14:48:20.638Z,29.45
2018-06-01T14:49:49.291Z,29.44
2018-06-01T14:51:16.037Z,29.44
2018-06-01T14:52:43.817Z,29.43
2018-06-01T14:54:11.556Z,29.43
2018-06-01T14:55:39.235Z,29.42
2018-06-01T14:57:06.875Z,29.40
2018-06-01T14:58:34.598Z,29.36
2018-06-01T15:00:02.004Z,29.35
2018-06-01T15:01:29.787Z,29.33
2018-06-01T15:02:57.451Z,29.33
2018-06-01T15:04:25.196Z,29.33
2018-06-01T15:05:52.815Z,29.31
2018-06-01T15:07:20.693Z,29.29
2018-06-01T15:08:48.407Z,29.26
2018-06-01T15:10:16.010Z,29.21
2018-06-01T15:11:43.782Z,29.17
2018-06-01T15:13:11.430Z,29.15
2018-06-01T15:14:39.127Z,29.13
2018-06-01T15:16:06.944Z,29.11
2018-06-01T15:17:35.495Z,29.09
2018-06-01T15:19:02.345Z,29.07
2018-06-01T15:20:30.799Z,29.07
2018-06-01T15:21:57.418Z,29.10
2018-06-01T15:23:25.155Z,29.10
2018-06-01T15:24:52.912Z,29.09
2018-06-01T15:26:20.625Z,29.08
2018-06-01T15:27:48.312Z,29.08
2018-06-01T15:29:17.068Z,29.08
2018-06-01T15:30:43.766Z,29.07
2018-06-01T15:32:11.524Z,29.06
2018-06-01T15:33:39.188Z,29.04
2018-06-01T15:35:06.738Z,29.03
2018-06-01T15:36:34.327Z,29.03
2018-06-01T15:38:01.970Z,29.03
2018-06-01T15:39:30.787Z,29.04
2018-06-01T15:40:57.592Z,29.01
2018-06-01T15:42:25.260Z,28.99
2018-06-01T15:43:52.950Z,28.97
2018-06-01T15:45:21.625Z,28.92
2018-06-01T15:46:48.248Z,28.92
2018-06-01T15:48:16.042Z,28.92
2018-06-01T15:49:44.790Z,28.89
2018-06-01T15:51:11.460Z,28.85
2018-06-01T15:52:39.037Z,28.81
2018-06-01T15:54:06.781Z,28.80
2018-06-01T15:55:34.458Z,28.81
2018-06-01T15:57:02.189Z,28.81
2018-06-01T15:58:30.507Z,28.81
2018-06-01T15:59:58.308Z,28.80
2018-06-01T16:01:26.035Z,28.80
2018-06-01T16:02:52.687Z,28.79
2018-06-01T16:04:20.229Z,28.77
2018-06-01T16:05:47.993Z,28.74
2018-06-01T16:07:15.661Z,28.74
2018-06-01T16:08:43.387Z,28.73
2018-06-01T16:10:11.171Z,28.72
2018-06-01T16:11:38.925Z,28.71
2018-06-01T16:13:06.646Z,28.68
2018-06-01T16:14:35.228Z,28.67
2018-06-01T16:16:01.976Z,28.63
2018-06-01T16:17:29.601Z,28.59
2018-06-01T16:18:57.265Z,28.55
2018-06-01T16:20:25.012Z,28.52
2018-06-01T16:21:52.742Z,28.49
2018-06-01T16:23:21.407Z,28.45
2018-06-01T16:24:48.103Z,28.43
2018-06-01T16:26:15.627Z,28.41
2018-06-01T16:27:43.379Z,28.37
2018-06-01T16:29:11.025Z,28.35
2018-06-01T16:30:38.612Z,28.34
2018-06-01T16:32:06.254Z,28.30
2018-06-01T16:33:33.915Z,28.30
2018-06-01T16:35:02.458Z,28.30
2018-06-01T16:36:30.117Z,28.28
2018-06-01T16:37:56.995Z,28.23
2018-06-01T16:39:24.609Z,28.18
2018-06-01T16:40:52.400Z,28.11
2018-06-01T16:42:20.072Z,28.07
2018-06-01T16:43:48.601Z,28.03
2018-06-01T16:45:15.246Z,28.01
2018-06-01T16:46:42.953Z,28.02
2018-06-01T16:48:10.456Z,28.03
2018-06-01T16:49:38.029Z,28.02
2018-06-01T16:51:05.593Z,27.97
2018-06-01T16:52:33.375Z,27.92
2018-06-01T16:54:01.002Z,27.89
2018-06-01T16:55:28.603Z,27.86
2018-06-01T16:56:57.278Z,27.82
2018-06-01T16:58:25.009Z,27.80
2018-06-01T16:59:51.762Z,27.76
2018-06-01T17:01:19.484Z,27.72
2018-06-01T17:02:47.167Z,27.69
2018-06-01T17:04:14.753Z,27.69
2018-06-01T17:05:42.490Z,27.69
2018-06-01T17:07:10.710Z,27.65
2018-06-01T17:08:37.312Z,27.64
2018-06-01T17:10:05.795Z,27.60
2018-06-01T17:11:32.518Z,27.57
2018-06-01T17:12:59.010Z,27.53
2018-06-01T17:14:26.738Z,27.50
2018-06-01T17:15:54.378Z,27.48
2018-06-01T17:17:21.706Z,27.43
2018-06-01T17:18:49.615Z,27.38
2018-06-01T17:20:17.294Z,27.34
2018-06-01T17:21:45.472Z,27.28
2018-06-01T17:23:12.089Z,27.25
2018-06-01T17:24:40.765Z,27.23
2018-06-01T17:26:07.474Z,27.22
2018-06-01T17:27:35.062Z,27.20
2018-06-01T17:29:02.596Z,27.18
2018-06-01T17:30:29.889Z,27.13
2018-06-01T17:31:57.568Z,27.09
2018-06-01T17:33:24.941Z,27.05
2018-06-01T17:34:52.667Z,27.01
2018-06-01T17:36:20.346Z,26.98
2018-06-01T17:37:48.064Z,26.96
2018-06-01T17:39:16.728Z,26.91
2018-06-01T17:40:43.393Z,26.88
2018-06-01T17:42:12.150Z,26.83
2018-06-01T17:43:38.853Z,26.81
2018-06-01T17:45:06.409Z,26.78
2018-06-01T17:46:34.115Z,26.77
2018-06-01T17:48:01.696Z,26.77
2018-06-01T17:49:29.059Z,26.75
2018-06-01T17:50:57.285Z,26.71
2018-06-01T17:52:24.001Z,26.70
2018-06-01T17:53:51.711Z,26.70
2018-06-01T17:55:20.456Z,26.69
2018-06-01T17:56:46.929Z,26.65
2018-06-01T17:58:14.537Z,26.66
2018-06-01T17:59:42.127Z,26.64
2018-06-01T18:01:10.370Z,26.63
2018-06-01T18:02:37.060Z,26.61
2018-06-01T18:04:05.693Z,26.58
2018-06-01T18:05:33.079Z,26.55
2018-06-01T18:06:59.415Z,26.55
2018-06-01T18:08:27.104Z,26.51
2018-06-01T18:09:54.731Z,26.49
2018-06-01T18:11:23.473Z,26.49
2018-06-01T18:12:51.006Z,26.48
2018-06-01T18:14:17.598Z,26.47
2018-06-01T18:15:46.349Z,26.46
2018-06-01T18:17:13.023Z,26.41
2018-06-01T18:18:40.733Z,26.41
2018-06-01T18:20:08.427Z,26.39
2018-06-01T18:21:37.063Z,26.38
2018-06-01T18:23:04.108Z,26.36
2018-06-01T18:24:30.588Z,26.33
2018-06-01T18:25:59.257Z,26.28
2018-06-01T18:27:25.941Z,26.25
2018-06-01T18:28:53.547Z,26.21
2018-06-01T18:30:20.589Z,26.16
2018-06-01T18:31:49.277Z,26.10
2018-06-01T18:33:16.973Z,26.06
2018-06-01T18:34:44.448Z,26.03
2018-06-01T18:36:11.924Z,26.00
2018-06-01T18:37:39.579Z,25.98
2018-06-01T18:39:05.618Z,25.93
2018-06-01T18:40:32.909Z,25.90
2018-06-01T18:42:00.390Z,25.86
2018-06-01T18:43:27.737Z,25.82
2018-06-01T18:44:55.319Z,25.78
2018-06-01T18:46:24.038Z,25.74
2018-06-01T18:47:50.514Z,25.69